createdAt,value
2023-03-06T00:01:05.695Z,6.70
2023-03-06T00:03:33.724Z,7.73
2023-03-06T00:06:00.590Z,7.70
2023-03-06T00:08:28.641Z,7.63
2023-03-06T00:10:56.739Z,8.13
2023-03-06T00:13:24.306Z,7.90
2023-03-06T00:15:51.029Z,8.03
2023-03-06T00:18:18.050Z,8.03
2023-03-06T00:20:45.030Z,7.70
2023-03-06T00:23:11.837Z,7.07
2023-03-06T00:25:42.877Z,7.20
2023-03-06T00:28:09.630Z,7.67
2023-03-06T00:30:36.462Z,8.77
2023-03-06T00:33:03.319Z,8.37
2023-03-06T00:35:29.959Z,7.13
2023-03-06T00:37:59.665Z,7.77
2023-03-06T00:40:26.889Z,8.20
2023-03-06T00:42:53.528Z,7.27
2023-03-06T00:45:20.314Z,8.20
2023-03-06T00:47:46.879Z,7.87
2023-03-06T00:50:13.502Z,9.23
2023-03-06T00:52:41.988Z,7.23
2023-03-06T00:55:09.445Z,7.83
2023-03-06T00:57:35.981Z,8.27
2023-03-06T01:00:03.043Z,9.37
2023-03-06T01:02:29.843Z,8.23
2023-03-06T01:04:57.319Z,8.10
2023-03-06T01:07:24.173Z,8.53
2023-03-06T01:09:50.892Z,7.87
2023-03-06T01:12:17.559Z,7.63
2023-03-06T01:14:44.287Z,8.90
2023-03-06T01:17:11.666Z,8.90
2023-03-06T01:19:38.319Z,7.77
2023-03-06T01:22:05.050Z,9.13
2023-03-06T01:24:31.662Z,7.73
2023-03-06T01:26:58.549Z,7.67
2023-03-06T01:29:26.447Z,7.90
2023-03-06T01:31:53.182Z,8.43
2023-03-06T01:34:19.786Z,8.80
2023-03-06T01:36:46.402Z,8.67
2023-03-06T01:39:12.969Z,8.67
2023-03-06T01:41:39.714Z,8.90
2023-03-06T01:44:06.248Z,8.00
2023-03-06T01:46:42.210Z,8.77
2023-03-06T01:49:12.760Z,6.97
2023-03-06T01:51:45.664Z,8.50
2023-03-06T01:54:20.539Z,8.93
2023-03-06T01:56:50.354Z,9.13
2023-03-06T01:59:17.261Z,8.67
2023-03-06T02:01:44.787Z,7.93
2023-03-06T02:04:11.957Z,7.07
2023-03-06T02:06:43.254Z,8.17
2023-03-06T02:09:11.488Z,8.53
2023-03-06T02:11:38.379Z,7.53
2023-03-06T02:14:05.185Z,7.63
2023-03-06T02:16:34.257Z,7.33
2023-03-06T02:19:02.442Z,7.37
2023-03-06T02:21:34.356Z,7.63
2023-03-06T02:24:11.923Z,8.63
2023-03-06T02:26:41.190Z,7.57
2023-03-06T02:29:10.621Z,7.90
2023-03-06T02:31:37.241Z,6.57
2023-03-06T02:34:05.827Z,7.40
2023-03-06T02:36:37.604Z,6.97
2023-03-06T02:39:05.405Z,8.40
2023-03-06T02:41:32.362Z,6.60
2023-03-06T02:43:58.991Z,6.80
2023-03-06T02:46:25.673Z,6.50
2023-03-06T02:48:52.288Z,7.87
2023-03-06T02:51:18.992Z,7.90
2023-03-06T02:53:45.574Z,6.57
2023-03-06T02:56:12.276Z,7.27
2023-03-06T02:58:38.967Z,7.77
2023-03-06T03:01:06.321Z,7.30
2023-03-06T03:03:33.382Z,7.20
2023-03-06T03:06:00.984Z,6.47
2023-03-06T03:08:28.193Z,6.30
2023-03-06T03:10:56.472Z,8.20
2023-03-06T03:13:23.481Z,7.67
2023-03-06T03:16:07.804Z,6.27
2023-03-06T03:18:35.299Z,7.50
2023-03-06T03:21:02.201Z,7.70
2023-03-06T03:23:28.825Z,7.50
2023-03-06T03:25:55.422Z,7.40
2023-03-06T03:28:22.016Z,7.77
2023-03-06T03:30:48.898Z,7.63
2023-03-06T03:33:15.612Z,7.47
2023-03-06T03:35:42.234Z,7.20
2023-03-06T03:38:08.867Z,6.87
2023-03-06T03:40:35.405Z,7.87
2023-03-06T03:43:02.182Z,7.40
2023-03-06T03:45:28.880Z,7.33
2023-03-06T03:47:55.433Z,7.00
2023-03-06T03:50:22.124Z,8.23
2023-03-06T03:52:48.790Z,7.53
2023-03-06T03:55:15.502Z,7.80
2023-03-06T03:57:43.187Z,7.00
2023-03-06T04:00:14.847Z,7.67
2023-03-06T04:02:41.945Z,7.97
2023-03-06T04:05:08.983Z,6.63
2023-03-06T04:07:35.831Z,7.23
2023-03-06T04:10:02.481Z,7.73
2023-03-06T04:12:29.090Z,6.67
2023-03-06T04:14:55.645Z,8.67
2023-03-06T04:17:22.211Z,6.97
2023-03-06T04:19:48.787Z,7.30
2023-03-06T04:22:15.541Z,7.17
2023-03-06T04:24:42.109Z,7.97
2023-03-06T04:27:08.800Z,8.73
2023-03-06T04:29:35.359Z,7.30
2023-03-06T04:32:02.894Z,8.40
2023-03-06T04:34:29.505Z,7.33
2023-03-06T04:36:56.054Z,8.40
2023-03-06T04:39:22.757Z,8.17
2023-03-06T04:41:49.315Z,8.33
2023-03-06T04:44:16.010Z,7.27
2023-03-06T04:46:43.442Z,8.07
2023-03-06T04:49:10.027Z,7.50
2023-03-06T04:51:36.943Z,7.70
2023-03-06T04:54:04.529Z,7.73
2023-03-06T04:56:31.603Z,7.43
2023-03-06T04:58:58.281Z,7.23
2023-03-06T05:01:25.039Z,8.07
2023-03-06T05:03:51.750Z,8.87
2023-03-06T05:06:18.307Z,7.73
2023-03-06T05:08:46.194Z,7.80
2023-03-06T05:11:12.853Z,7.87
2023-03-06T05:13:39.429Z,7.07
2023-03-06T05:16:06.591Z,8.30
2023-03-06T05:18:36.049Z,8.10
2023-03-06T05:21:04.425Z,8.97
2023-03-06T05:23:32.996Z,7.87
2023-03-06T05:25:59.815Z,8.83
2023-03-06T05:28:26.889Z,7.70
2023-03-06T05:30:53.564Z,7.43
2023-03-06T05:33:20.180Z,7.03
2023-03-06T05:35:48.443Z,9.13
2023-03-06T05:38:16.553Z,8.33
2023-03-06T05:40:44.556Z,9.20
2023-03-06T05:43:12.097Z,7.33
2023-03-06T05:45:39.454Z,8.80
2023-03-06T05:48:07.027Z,8.63
2023-03-06T05:50:34.464Z,8.27
2023-03-06T05:53:01.641Z,9.50
2023-03-06T05:55:28.292Z,8.97
2023-03-06T05:57:54.980Z,10.10
2023-03-06T06:00:22.411Z,9.77
2023-03-06T06:02:49.394Z,9.57
2023-03-06T06:05:16.097Z,9.57
2023-03-06T06:07:42.776Z,10.13
2023-03-06T06:10:11.425Z,9.50
2023-03-06T06:12:38.323Z,10.10
2023-03-06T06:15:06.670Z,8.80
2023-03-06T06:17:34.710Z,8.87
2023-03-06T06:20:01.406Z,8.77
2023-03-06T06:22:28.037Z,9.27
2023-03-06T06:24:54.649Z,10.13
2023-03-06T06:27:21.344Z,10.03
2023-03-06T06:29:51.392Z,8.73
2023-03-06T06:32:18.069Z,10.53
2023-03-06T06:34:44.705Z,8.20
2023-03-06T06:37:11.396Z,9.77
2023-03-06T06:39:38.017Z,9.43
2023-03-06T06:42:28.180Z,10.83
2023-03-06T06:44:51.536Z,10.70
2023-03-06T06:47:22.815Z,11.47
2023-03-06T06:49:51.813Z,10.47
2023-03-06T06:52:18.958Z,11.00
2023-03-06T06:54:45.744Z,11.83
2023-03-06T06:57:12.647Z,12.93
2023-03-06T06:59:39.421Z,14.07
2023-03-06T07:02:06.350Z,13.33
2023-03-06T07:04:33.106Z,15.23
2023-03-06T07:07:00.184Z,14.90
2023-03-06T07:09:26.981Z,13.47
2023-03-06T07:11:53.605Z,13.27
2023-03-06T07:14:20.256Z,13.47
2023-03-06T07:16:46.934Z,13.57
2023-03-06T07:19:13.706Z,14.23
2023-03-06T07:21:40.366Z,13.30
2023-03-06T07:24:07.165Z,12.17
2023-03-06T07:26:34.856Z,11.03
2023-03-06T07:29:02.578Z,11.63
2023-03-06T07:31:29.293Z,12.80
2023-03-06T07:33:55.961Z,12.97
2023-03-06T07:36:23.781Z,11.93
2023-03-06T07:38:50.737Z,11.87
2023-03-06T07:41:21.886Z,13.63
2023-03-06T07:43:49.559Z,12.13
2023-03-06T07:46:16.288Z,12.30
2023-03-06T07:48:43.323Z,12.33
2023-03-06T07:51:19.163Z,11.77
2023-03-06T07:53:46.870Z,12.77
2023-03-06T07:56:13.611Z,11.40
2023-03-06T07:58:43.094Z,11.30
2023-03-06T08:01:23.604Z,13.20
2023-03-06T08:03:50.749Z,12.93
2023-03-06T08:06:22.975Z,12.07
2023-03-06T08:08:51.070Z,13.03
2023-03-06T08:11:20.481Z,12.73
2023-03-06T08:13:48.857Z,13.13
2023-03-06T08:16:17.409Z,12.20
2023-03-06T08:18:46.275Z,12.57
2023-03-06T08:21:21.188Z,13.17
2023-03-06T08:23:48.336Z,12.43
2023-03-06T08:26:18.016Z,13.53
2023-03-06T08:28:44.965Z,14.90
2023-03-06T08:31:23.385Z,14.20
2023-03-06T08:33:50.252Z,12.40
2023-03-06T08:36:16.890Z,12.57
2023-03-06T08:38:43.458Z,11.60
2023-03-06T08:41:10.154Z,11.93
2023-03-06T08:43:36.998Z,11.37
2023-03-06T08:46:04.013Z,13.27
2023-03-06T08:48:30.776Z,13.23
2023-03-06T08:50:57.351Z,11.93
2023-03-06T08:53:40.295Z,12.70
2023-03-06T08:56:15.521Z,10.80
2023-03-06T08:58:42.245Z,11.53
2023-03-06T09:01:23.526Z,12.13
2023-03-06T09:03:51.100Z,11.93
2023-03-06T09:06:17.768Z,13.20
2023-03-06T09:08:44.858Z,11.97
2023-03-06T09:11:14.307Z,13.13
2023-03-06T09:13:41.758Z,11.77
2023-03-06T09:16:09.087Z,11.67
2023-03-06T09:18:36.169Z,12.20
2023-03-06T09:21:04.180Z,11.43
2023-03-06T09:23:31.241Z,11.83
2023-03-06T09:25:59.702Z,11.33
2023-03-06T09:28:26.434Z,11.83
2023-03-06T09:30:53.486Z,10.83
2023-03-06T09:33:21.393Z,11.07
2023-03-06T09:35:57.777Z,10.70
2023-03-06T09:38:27.262Z,11.93
2023-03-06T09:41:05.891Z,10.83
2023-03-06T09:43:40.206Z,12.87
2023-03-06T09:46:39.866Z,13.20
2023-03-06T09:49:26.260Z,13.87
2023-03-06T09:52:20.331Z,11.60
2023-03-06T09:54:55.405Z,12.70
2023-03-06T09:57:26.201Z,11.17
2023-03-06T10:00:02.905Z,11.30
2023-03-06T10:02:30.796Z,12.27
2023-03-06T10:05:04.094Z,12.57
2023-03-06T10:07:44.734Z,12.10
2023-03-06T10:10:24.151Z,12.10
2023-03-06T10:13:03.098Z,11.57
2023-03-06T10:15:36.232Z,11.63
2023-03-06T10:18:05.459Z,11.90
2023-03-06T10:21:02.548Z,18.17
2023-03-06T10:24:09.460Z,11.57
2023-03-06T10:26:43.519Z,10.30
2023-03-06T10:29:12.946Z,12.20
2023-03-06T10:31:46.600Z,10.80
2023-03-06T10:34:22.446Z,11.63
2023-03-06T10:36:50.207Z,10.90
2023-03-06T10:39:21.739Z,11.23
2023-03-06T10:41:49.751Z,9.73
2023-03-06T10:44:16.390Z,9.27
2023-03-06T10:46:48.482Z,8.77
2023-03-06T10:49:15.052Z,9.83
2023-03-06T10:51:56.373Z,9.60
2023-03-06T10:54:23.018Z,10.33
2023-03-06T10:56:49.708Z,9.63
2023-03-06T10:59:25.579Z,9.60
2023-03-06T11:02:20.036Z,9.57
2023-03-06T11:04:52.511Z,9.90
2023-03-06T11:07:27.932Z,9.63
2023-03-06T11:09:57.890Z,10.53
2023-03-06T11:12:38.760Z,10.77
2023-03-06T11:15:09.853Z,10.10
2023-03-06T11:17:58.854Z,12.73
2023-03-06T11:20:51.374Z,8.10
2023-03-06T11:23:35.318Z,9.07
2023-03-06T11:26:06.123Z,9.53
2023-03-06T11:28:41.705Z,8.97
2023-03-06T11:31:11.551Z,8.93
2023-03-06T11:33:54.040Z,8.57
2023-03-06T11:36:30.647Z,10.43
2023-03-06T11:38:57.228Z,10.37
2023-03-06T11:41:52.636Z,10.67
2023-03-06T11:45:10.240Z,9.27
2023-03-06T11:47:42.346Z,9.60
2023-03-06T11:50:21.640Z,8.70
2023-03-06T11:52:58.805Z,9.80
2023-03-06T11:55:40.632Z,7.87
2023-03-06T11:58:36.774Z,8.87
2023-03-06T12:01:14.638Z,9.07
2023-03-06T12:03:50.209Z,8.87
2023-03-06T12:06:34.798Z,9.30
2023-03-06T12:09:13.473Z,9.10
2023-03-06T12:11:58.284Z,9.03
2023-03-06T12:14:55.236Z,12.20
2023-03-06T12:18:03.224Z,8.97
2023-03-06T12:20:29.732Z,8.90
2023-03-06T12:23:16.488Z,12.20
2023-03-06T12:25:49.120Z,17.50
2023-03-06T12:28:23.152Z,15.47
2023-03-06T12:31:10.813Z,10.70
2023-03-06T12:33:43.045Z,8.90
2023-03-06T12:36:21.801Z,8.17
2023-03-06T12:39:31.386Z,8.13
2023-03-06T12:42:30.769Z,6.97
2023-03-06T12:45:21.976Z,7.00
2023-03-06T12:47:53.765Z,7.43
2023-03-06T12:50:23.373Z,9.53
2023-03-06T12:52:51.931Z,8.80
2023-03-06T12:55:24.356Z,5.20
2023-03-06T12:57:53.006Z,5.73
2023-03-06T13:00:35.118Z,6.60
2023-03-06T13:03:01.638Z,6.37
2023-03-06T13:05:56.668Z,5.60
2023-03-06T13:08:52.782Z,5.33
2023-03-06T13:11:36.918Z,5.23
2023-03-06T13:14:21.392Z,7.80
2023-03-06T13:16:48.091Z,5.17
2023-03-06T13:19:26.505Z,5.57
2023-03-06T13:21:56.530Z,5.70
2023-03-06T13:24:27.488Z,5.70
2023-03-06T13:26:55.826Z,5.47
2023-03-06T13:29:37.869Z,5.73
2023-03-06T13:32:04.500Z,12.20
2023-03-06T13:34:37.051Z,6.53
2023-03-06T13:37:29.940Z,6.70
2023-03-06T13:39:59.559Z,6.00
2023-03-06T13:42:30.575Z,5.27
2023-03-06T13:45:24.794Z,5.60
2023-03-06T13:50:46.349Z,5.67
2023-03-06T13:53:54.999Z,6.33
2023-03-06T13:56:39.811Z,5.63
2023-03-06T13:59:22.901Z,5.20
2023-03-06T14:02:11.299Z,5.27
2023-03-06T14:04:57.833Z,5.10
2023-03-06T14:07:33.101Z,5.03
2023-03-06T14:10:01.428Z,5.30
2023-03-06T14:12:38.081Z,5.47
2023-03-06T14:15:15.176Z,4.67
2023-03-06T14:17:53.196Z,5.20
2023-03-06T14:20:21.280Z,5.63
2023-03-06T14:22:48.374Z,5.23
2023-03-06T14:25:28.459Z,5.10
2023-03-06T14:28:02.869Z,5.00
2023-03-06T14:30:32.333Z,4.50
2023-03-06T14:32:59.127Z,5.00
2023-03-06T14:35:32.136Z,4.77
2023-03-06T14:38:02.502Z,5.60
2023-03-06T14:40:33.386Z,5.73
2023-03-06T14:43:13.757Z,5.73
2023-03-06T14:46:19.908Z,5.83
2023-03-06T14:48:48.083Z,5.30
2023-03-06T14:51:19.396Z,5.87
2023-03-06T14:53:48.983Z,5.23
2023-03-06T14:56:26.742Z,5.00
2023-03-06T14:59:08.331Z,5.20
2023-03-06T15:01:39.603Z,5.53
2023-03-06T15:04:28.587Z,5.30
2023-03-06T15:06:58.052Z,5.20
2023-03-06T15:09:26.686Z,5.37
2023-03-06T15:12:21.317Z,5.00
2023-03-06T15:15:10.458Z,5.23
2023-03-06T15:17:42.272Z,5.60
2023-03-06T15:20:48.734Z,5.70
2023-03-06T15:23:34.179Z,5.17
2023-03-06T15:26:04.461Z,5.13
2023-03-06T15:28:36.010Z,5.43
2023-03-06T15:31:18.328Z,5.40
2023-03-06T15:33:59.437Z,5.70
2023-03-06T15:36:31.775Z,5.40
2023-03-06T15:39:00.830Z,7.57
2023-03-06T15:41:36.316Z,5.50
2023-03-06T15:44:10.779Z,5.67
2023-03-06T15:46:37.522Z,5.57
2023-03-06T15:49:04.821Z,6.03
2023-03-06T15:51:32.701Z,5.77
2023-03-06T15:54:11.316Z,5.30
2023-03-06T15:56:43.960Z,5.17
2023-03-06T15:59:24.837Z,5.83
2023-03-06T16:01:52.487Z,14.50
2023-03-06T16:04:19.931Z,6.90
2023-03-06T16:06:46.644Z,5.93
2023-03-06T16:09:14.071Z,5.83
2023-03-06T16:11:47.255Z,9.97
2023-03-06T16:14:21.418Z,6.17
2023-03-06T16:16:49.355Z,5.60
2023-03-06T16:19:25.969Z,6.17
2023-03-06T16:21:53.366Z,5.83
2023-03-06T16:24:20.012Z,4.97
2023-03-06T16:26:51.486Z,6.10
2023-03-06T16:29:21.188Z,5.57
2023-03-06T16:31:48.338Z,5.17
2023-03-06T16:34:15.388Z,6.30
2023-03-06T16:36:42.023Z,6.20
2023-03-06T16:39:20.900Z,5.67
2023-03-06T16:41:49.249Z,6.30
2023-03-06T16:44:17.924Z,6.30
2023-03-06T16:46:47.188Z,6.63
2023-03-06T16:49:23.453Z,5.47
2023-03-06T16:51:50.783Z,6.60
2023-03-06T16:54:18.006Z,6.00
2023-03-06T16:56:44.803Z,6.00
2023-03-06T16:59:12.315Z,6.60
2023-03-06T17:01:42.927Z,7.27
2023-03-06T17:04:09.854Z,6.57
2023-03-06T17:06:36.763Z,6.70
2023-03-06T17:09:04.035Z,6.33
2023-03-06T17:11:30.552Z,7.27
2023-03-06T17:13:57.188Z,6.67
2023-03-06T17:16:23.745Z,6.30
2023-03-06T17:18:50.438Z,6.73
2023-03-06T17:21:17.039Z,7.23
2023-03-06T17:23:44.637Z,6.07
2023-03-06T17:26:11.359Z,7.13
2023-03-06T17:28:38.689Z,6.67
2023-03-06T17:31:16.736Z,6.73
2023-03-06T17:33:43.963Z,7.00
2023-03-06T17:36:11.099Z,6.63
2023-03-06T17:38:37.892Z,6.20
2023-03-06T17:41:06.137Z,7.13
2023-03-06T17:43:33.089Z,6.17
2023-03-06T17:46:07.621Z,6.33
2023-03-06T17:48:35.242Z,7.20
2023-03-06T17:51:05.778Z,7.37
2023-03-06T17:53:32.456Z,7.33
2023-03-06T17:55:59.414Z,7.27
2023-03-06T17:58:27.085Z,6.63
2023-03-06T18:00:53.728Z,6.17
2023-03-06T18:03:20.527Z,6.90
2023-03-06T18:05:47.175Z,6.70
2023-03-06T18:08:14.123Z,7.07
2023-03-06T18:10:41.730Z,9.33
2023-03-06T18:13:10.335Z,7.10
2023-03-06T18:15:41.313Z,6.50
2023-03-06T18:18:08.786Z,6.63
2023-03-06T18:20:40.998Z,6.87
2023-03-06T18:23:07.899Z,6.60
2023-03-06T18:25:35.062Z,6.90
2023-03-06T18:28:02.021Z,6.40
2023-03-06T18:30:28.715Z,6.53
2023-03-06T18:32:55.293Z,6.37
2023-03-06T18:35:21.988Z,6.47
2023-03-06T18:37:48.614Z,6.47
2023-03-06T18:40:15.305Z,7.30
2023-03-06T18:42:44.566Z,6.70
2023-03-06T18:45:12.852Z,6.63
2023-03-06T18:47:41.098Z,7.17
2023-03-06T18:50:08.117Z,6.73
2023-03-06T18:52:34.940Z,7.33
2023-03-06T18:55:01.709Z,7.23
2023-03-06T18:57:30.307Z,7.20
2023-03-06T18:59:57.007Z,7.13
2023-03-06T19:02:23.607Z,7.13
2023-03-06T19:04:50.196Z,7.07
2023-03-06T19:07:16.947Z,6.90
2023-03-06T19:09:44.496Z,6.30
2023-03-06T19:12:11.588Z,7.47
2023-03-06T19:14:38.214Z,6.57
2023-03-06T19:17:05.127Z,7.30
2023-03-06T19:19:31.703Z,7.67
2023-03-06T19:21:58.507Z,6.83
2023-03-06T19:24:25.392Z,7.30
2023-03-06T19:26:52.259Z,7.63
2023-03-06T19:29:19.028Z,6.90
2023-03-06T19:31:45.687Z,7.80
2023-03-06T19:34:12.279Z,6.80
2023-03-06T19:36:40.921Z,6.77
2023-03-06T19:39:09.581Z,7.87
2023-03-06T19:41:36.613Z,7.17
2023-03-06T19:44:05.728Z,7.57
2023-03-06T19:46:32.973Z,7.50
2023-03-06T19:49:01.897Z,7.67
2023-03-06T19:51:28.918Z,7.50
2023-03-06T19:53:56.688Z,8.53
2023-03-06T19:56:26.421Z,8.57
2023-03-06T19:58:53.453Z,8.63
2023-03-06T20:01:21.560Z,8.37
2023-03-06T20:03:49.394Z,8.20
2023-03-06T20:06:20.186Z,8.73
2023-03-06T20:08:47.856Z,7.70
2023-03-06T20:11:23.410Z,8.37
2023-03-06T20:13:50.407Z,7.77
2023-03-06T20:16:20.017Z,7.23
2023-03-06T20:18:46.848Z,7.77
2023-03-06T20:21:14.153Z,8.27
2023-03-06T20:23:40.970Z,7.47
2023-03-06T20:26:10.163Z,7.77
2023-03-06T20:28:39.116Z,7.23
2023-03-06T20:31:19.530Z,7.70
2023-03-06T20:33:48.071Z,8.07
2023-03-06T20:36:23.417Z,7.30
2023-03-06T20:38:50.488Z,7.83
2023-03-06T20:41:19.616Z,7.80
2023-03-06T20:43:46.438Z,8.07
2023-03-06T20:46:14.273Z,8.43
2023-03-06T20:48:41.986Z,7.50
2023-03-06T20:51:24.940Z,8.17
2023-03-06T20:53:55.899Z,7.63
2023-03-06T20:56:27.599Z,7.93
2023-03-06T20:58:54.219Z,7.50
2023-03-06T21:01:23.412Z,7.63
2023-03-06T21:03:50.657Z,7.20
2023-03-06T21:06:18.248Z,7.77
2023-03-06T21:08:44.838Z,7.33
2023-03-06T21:11:11.468Z,7.80
2023-03-06T21:13:38.035Z,7.53
2023-03-06T21:16:06.758Z,7.13
2023-03-06T21:18:33.754Z,8.30
2023-03-06T21:21:08.821Z,8.00
2023-03-06T21:23:35.431Z,6.40
2023-03-06T21:26:02.220Z,7.17
2023-03-06T21:28:29.052Z,7.33
2023-03-06T21:30:55.770Z,6.97
2023-03-06T21:33:23.021Z,7.00
2023-03-06T21:35:49.622Z,7.17
2023-03-06T21:38:16.657Z,6.33
2023-03-06T21:40:44.621Z,6.87
2023-03-06T21:43:12.361Z,6.53
2023-03-06T21:45:46.993Z,6.87
2023-03-06T21:48:15.192Z,7.60
2023-03-06T21:50:42.627Z,6.10
2023-03-06T21:53:09.300Z,7.50
2023-03-06T21:55:40.451Z,6.97
2023-03-06T21:58:07.020Z,6.97
2023-03-06T22:00:36.510Z,6.60
2023-03-06T22:03:04.781Z,7.27
2023-03-06T22:05:34.154Z,6.33
2023-03-06T22:08:00.726Z,6.50
2023-03-06T22:10:27.347Z,6.60
2023-03-06T22:12:54.030Z,6.90
2023-03-06T22:15:21.841Z,7.07
2023-03-06T22:17:48.725Z,6.23
2023-03-06T22:20:16.024Z,7.17
2023-03-06T22:22:43.743Z,6.70
2023-03-06T22:25:12.314Z,6.80
2023-03-06T22:27:39.122Z,6.63
2023-03-06T22:30:06.547Z,7.30
2023-03-06T22:32:34.005Z,7.47
2023-03-06T22:35:00.935Z,6.30
2023-03-06T22:37:27.690Z,6.93
2023-03-06T22:39:54.358Z,7.43
2023-03-06T22:42:20.920Z,7.30
2023-03-06T22:44:47.521Z,6.77
2023-03-06T22:47:14.118Z,6.73
2023-03-06T22:49:40.714Z,7.03
2023-03-06T22:52:07.293Z,6.47
2023-03-06T22:54:34.010Z,6.97
2023-03-06T22:57:00.563Z,7.00
2023-03-06T22:59:27.182Z,6.17
2023-03-06T23:01:53.920Z,6.60
2023-03-06T23:04:20.525Z,6.73
2023-03-06T23:06:47.168Z,6.83
2023-03-06T23:09:22.489Z,6.97
2023-03-06T23:11:49.928Z,6.27
2023-03-06T23:14:18.218Z,5.93
2023-03-06T23:16:45.454Z,6.60
2023-03-06T23:19:12.530Z,7.10
2023-03-06T23:21:39.194Z,6.70
2023-03-06T23:24:07.035Z,5.80
2023-03-06T23:26:34.428Z,5.37
2023-03-06T23:29:01.764Z,6.63
2023-03-06T23:31:30.752Z,6.17
2023-03-06T23:34:02.217Z,5.70
2023-03-06T23:36:30.304Z,5.90
2023-03-06T23:38:57.638Z,6.73
2023-03-06T23:41:25.226Z,5.80
2023-03-06T23:43:54.641Z,6.27
2023-03-06T23:46:22.032Z,6.73
2023-03-06T23:48:48.724Z,5.50
2023-03-06T23:51:21.395Z,6.10
2023-03-06T23:53:55.134Z,5.33
2023-03-06T23:56:22.778Z,5.70
2023-03-06T23:58:49.417Z,4.93
